createdAt,value
2022-12-31T00:00:09.955Z,39.53
2022-12-31T00:02:37.223Z,36.47
2022-12-31T00:05:06.815Z,42.28
2022-12-31T00:10:02.457Z,41.47
2022-12-31T00:12:31.069Z,38.05
2022-12-31T00:14:59.859Z,26.50
2022-12-31T00:17:28.324Z,29.05
2022-12-31T00:19:55.419Z,22.08
2022-12-31T00:22:22.437Z,26.63
2022-12-31T00:24:49.441Z,24.73
2022-12-31T00:27:16.540Z,29.45
2022-12-31T00:29:43.629Z,22.42
2022-12-31T00:32:10.865Z,39.45
2022-12-31T00:34:37.930Z,27.73
2022-12-31T00:37:05.094Z,28.40
2022-12-31T00:39:32.152Z,30.67
2022-12-31T00:41:59.225Z,31.42
2022-12-31T00:44:26.320Z,24.08
2022-12-31T00:46:53.316Z,20.67
2022-12-31T00:49:20.355Z,19.38
2022-12-31T00:51:47.656Z,22.67
2022-12-31T00:54:15.157Z,26.88
2022-12-31T00:56:42.177Z,28.67
2022-12-31T00:59:09.204Z,34.65
2022-12-31T01:01:39.002Z,38.20
2022-12-31T01:04:10.403Z,40.38
2022-12-31T01:06:37.947Z,46.65
2022-12-31T01:09:06.354Z,53.58
2022-12-31T01:11:33.657Z,55.47
2022-12-31T01:14:09.914Z,59.50
2022-12-31T01:16:52.623Z,49.60
2022-12-31T01:19:28.112Z,60.08
2022-12-31T01:21:56.148Z,62.83
2022-12-31T01:24:23.471Z,61.33
2022-12-31T01:26:51.499Z,66.68
2022-12-31T01:29:18.565Z,57.45
2022-12-31T01:31:45.602Z,75.43
2022-12-31T01:34:12.722Z,51.60
2022-12-31T01:36:39.885Z,45.33
2022-12-31T01:39:08.879Z,43.45
2022-12-31T01:41:39.152Z,45.50
2022-12-31T01:44:52.507Z,36.30
2022-12-31T01:47:28.229Z,36.15
2022-12-31T01:50:02.691Z,33.95
2022-12-31T01:52:37.736Z,52.80
2022-12-31T01:55:44.878Z,34.80
2022-12-31T01:58:19.615Z,46.00
2022-12-31T02:00:47.661Z,45.35
2022-12-31T02:03:15.015Z,45.03
2022-12-31T02:06:09.322Z,41.35
2022-12-31T02:08:41.978Z,45.33
2022-12-31T02:11:29.320Z,41.88
2022-12-31T02:14:00.905Z,57.67
2022-12-31T02:16:40.306Z,51.03
2022-12-31T02:20:18.267Z,52.15
2022-12-31T02:23:16.279Z,55.35
2022-12-31T02:26:30.325Z,41.67
2022-12-31T02:29:34.945Z,57.88
2022-12-31T02:32:08.287Z,39.28
2022-12-31T02:34:45.122Z,46.30
2022-12-31T02:37:16.284Z,45.20
2022-12-31T02:39:44.521Z,31.48
2022-12-31T02:42:12.169Z,31.05
2022-12-31T02:44:41.391Z,28.17
2022-12-31T02:47:34.990Z,29.02
2022-12-31T02:50:42.930Z,31.23
2022-12-31T02:53:48.420Z,24.83
2022-12-31T02:56:36.551Z,28.35
2022-12-31T02:59:29.737Z,36.60
2022-12-31T03:02:16.145Z,29.17
2022-12-31T03:04:47.976Z,26.10
2022-12-31T03:07:20.607Z,26.75
2022-12-31T03:09:47.590Z,25.38
2022-12-31T03:12:48.338Z,23.95
2022-12-31T03:15:34.651Z,20.03
2022-12-31T03:18:13.885Z,21.40
2022-12-31T03:21:06.126Z,17.75
2022-12-31T03:23:39.304Z,24.27
2022-12-31T03:26:12.373Z,20.85
2022-12-31T03:28:42.769Z,16.17
2022-12-31T03:31:09.976Z,21.00
2022-12-31T03:33:39.490Z,20.20
2022-12-31T03:36:09.900Z,22.45
2022-12-31T03:38:37.260Z,19.50
2022-12-31T03:41:04.595Z,30.08
2022-12-31T03:43:31.588Z,18.90
2022-12-31T03:46:00.033Z,20.35
2022-12-31T03:48:27.432Z,16.65
2022-12-31T03:50:54.645Z,23.90
2022-12-31T03:53:21.772Z,16.17
2022-12-31T03:55:53.300Z,19.80
2022-12-31T03:58:21.843Z,19.60
2022-12-31T04:00:49.526Z,25.00
2022-12-31T04:03:16.720Z,17.92
2022-12-31T04:05:43.936Z,17.63
2022-12-31T04:08:10.938Z,26.92
2022-12-31T04:10:37.943Z,35.92
2022-12-31T04:13:05.061Z,25.05
2022-12-31T04:15:32.247Z,20.13
2022-12-31T04:17:59.286Z,22.38
2022-12-31T04:20:26.442Z,19.88
2022-12-31T04:22:53.420Z,24.65
2022-12-31T04:25:20.435Z,24.85
2022-12-31T04:27:47.920Z,22.27
2022-12-31T04:30:15.143Z,26.45
2022-12-31T04:32:42.261Z,32.45
2022-12-31T04:35:10.717Z,29.45
2022-12-31T04:37:37.941Z,25.45
2022-12-31T04:40:08.640Z,33.35
2022-12-31T04:42:36.108Z,28.30
2022-12-31T04:45:03.312Z,28.05
2022-12-31T04:47:30.364Z,30.05
2022-12-31T04:49:57.316Z,27.48
2022-12-31T04:52:24.423Z,26.55
2022-12-31T04:54:51.530Z,23.92
2022-12-31T04:57:18.528Z,34.28
2022-12-31T04:59:45.558Z,30.00
2022-12-31T05:02:12.796Z,33.90
2022-12-31T05:04:40.001Z,25.13
2022-12-31T05:07:07.017Z,21.70
2022-12-31T05:09:33.995Z,27.17
2022-12-31T05:12:01.140Z,31.45
2022-12-31T05:14:28.140Z,25.08
2022-12-31T05:16:55.328Z,24.00
2022-12-31T05:19:22.443Z,31.25
2022-12-31T05:22:09.391Z,20.85
2022-12-31T05:24:36.537Z,20.35
2022-12-31T05:27:03.891Z,23.85
2022-12-31T05:29:30.927Z,20.83
2022-12-31T05:31:58.010Z,21.38
2022-12-31T05:34:24.940Z,18.25
2022-12-31T05:36:51.953Z,23.33
2022-12-31T05:39:18.999Z,23.88
2022-12-31T05:41:46.011Z,26.73
2022-12-31T05:44:13.212Z,23.20
2022-12-31T05:46:40.184Z,16.75
2022-12-31T05:49:07.210Z,18.75
2022-12-31T05:51:34.349Z,22.00
2022-12-31T05:54:01.416Z,20.83
2022-12-31T05:56:28.398Z,21.02
2022-12-31T05:58:55.621Z,34.28
2022-12-31T06:01:22.729Z,38.00
2022-12-31T06:03:49.766Z,45.63
2022-12-31T06:06:16.843Z,43.80
2022-12-31T06:08:43.863Z,52.58
2022-12-31T06:11:10.958Z,41.72
2022-12-31T06:13:37.953Z,54.92
2022-12-31T06:16:09.741Z,46.97
2022-12-31T06:18:37.182Z,61.38
2022-12-31T06:21:04.605Z,62.95
2022-12-31T06:23:31.773Z,67.53
2022-12-31T06:26:04.899Z,56.90
2022-12-31T06:28:31.860Z,57.55
2022-12-31T06:31:06.324Z,56.88
2022-12-31T06:33:34.109Z,51.03
2022-12-31T06:36:07.051Z,51.90
2022-12-31T06:38:37.003Z,55.30
2022-12-31T06:41:05.316Z,61.35
2022-12-31T06:43:32.419Z,51.67
2022-12-31T06:46:03.830Z,57.75
2022-12-31T06:51:03.027Z,46.58
2022-12-31T06:53:30.029Z,47.05
2022-12-31T06:56:05.599Z,46.97
2022-12-31T06:58:33.224Z,58.72
2022-12-31T07:01:45.619Z,53.13
2022-12-31T07:04:58.488Z,48.90
2022-12-31T07:07:57.554Z,61.15
2022-12-31T07:10:50.146Z,48.97
2022-12-31T07:14:14.051Z,43.00
2022-12-31T07:17:11.084Z,39.08
2022-12-31T07:20:11.408Z,45.85
2022-12-31T07:22:40.987Z,43.80
2022-12-31T07:25:13.390Z,45.95
2022-12-31T07:27:51.473Z,52.22
2022-12-31T07:30:23.436Z,45.92
2022-12-31T07:33:31.736Z,36.22
2022-12-31T07:36:27.947Z,48.60
2022-12-31T07:39:15.036Z,43.08
2022-12-31T07:42:03.032Z,32.67
2022-12-31T07:45:15.144Z,38.85
2022-12-31T07:47:42.616Z,38.90
2022-12-31T07:50:18.202Z,41.85
2022-12-31T07:52:45.871Z,36.08
2022-12-31T07:55:13.186Z,33.65
2022-12-31T07:58:06.451Z,33.38
2022-12-31T08:00:33.928Z,33.03
2022-12-31T08:03:34.259Z,26.20
2022-12-31T08:06:44.681Z,27.13
2022-12-31T08:09:31.803Z,25.63
2022-12-31T08:12:01.193Z,27.20
2022-12-31T08:14:29.376Z,24.42
2022-12-31T08:16:57.533Z,24.50
2022-12-31T08:19:28.611Z,31.33
2022-12-31T08:22:47.057Z,23.50
2022-12-31T08:25:23.079Z,24.08
2022-12-31T08:28:42.305Z,54.92
2022-12-31T08:31:18.092Z,47.65
2022-12-31T08:34:05.757Z,58.42
2022-12-31T08:36:44.097Z,63.60
2022-12-31T08:39:51.010Z,62.80
2022-12-31T08:42:45.036Z,53.50
2022-12-31T08:45:38.056Z,54.88
2022-12-31T08:48:36.476Z,41.45
2022-12-31T08:51:03.813Z,55.83
2022-12-31T08:53:35.133Z,54.03
2022-12-31T08:56:15.595Z,46.15
2022-12-31T08:59:23.798Z,49.17
2022-12-31T09:02:48.069Z,63.47
2022-12-31T09:05:24.775Z,61.15
2022-12-31T09:08:29.124Z,57.72
2022-12-31T09:11:45.968Z,56.75
2022-12-31T09:14:49.594Z,52.78
2022-12-31T09:17:44.154Z,60.97
2022-12-31T09:20:42.423Z,53.00
2022-12-31T09:23:11.492Z,53.55
2022-12-31T09:26:11.294Z,48.67
2022-12-31T09:29:43.454Z,50.67
2022-12-31T09:32:55.328Z,63.97
2022-12-31T09:35:54.102Z,51.20
2022-12-31T09:38:35.969Z,63.17
2022-12-31T09:41:14.717Z,61.22
2022-12-31T09:44:46.617Z,65.53
2022-12-31T09:48:21.415Z,85.70
2022-12-31T09:51:04.448Z,81.47
2022-12-31T09:54:16.428Z,72.82
2022-12-31T09:56:59.266Z,79.75
2022-12-31T09:59:54.534Z,96.22
2022-12-31T10:02:43.754Z,78.13
2022-12-31T10:05:44.466Z,79.55
2022-12-31T10:08:43.608Z,72.47
2022-12-31T10:11:41.188Z,83.80
2022-12-31T10:14:45.303Z,85.10
2022-12-31T10:17:47.206Z,96.20
2022-12-31T10:20:56.289Z,81.40
2022-12-31T10:24:05.073Z,85.55
2022-12-31T10:27:27.469Z,79.18
2022-12-31T10:30:24.815Z,80.05
2022-12-31T10:33:19.560Z,87.93
2022-12-31T10:35:57.453Z,82.75
2022-12-31T10:39:24.647Z,73.93
2022-12-31T10:42:19.979Z,70.35
2022-12-31T10:45:38.114Z,81.53
2022-12-31T10:48:46.349Z,63.35
2022-12-31T10:51:58.342Z,68.90
2022-12-31T10:55:07.049Z,67.22
2022-12-31T10:58:27.523Z,69.15
2022-12-31T11:01:18.024Z,62.95
2022-12-31T11:04:39.963Z,61.93
2022-12-31T11:07:42.519Z,64.72
2022-12-31T11:10:50.154Z,70.57
2022-12-31T11:13:53.572Z,64.55
2022-12-31T11:51:31.385Z,58.33
2022-12-31T12:00:23.277Z,60.35
2022-12-31T12:02:59.393Z,51.88
2022-12-31T12:05:27.089Z,66.22
2022-12-31T12:07:54.776Z,68.30
2022-12-31T12:10:36.077Z,60.38
2022-12-31T12:13:22.859Z,52.70
2022-12-31T12:15:53.726Z,55.30
2022-12-31T12:18:49.666Z,42.42
2022-12-31T12:21:21.866Z,43.70
2022-12-31T12:24:01.132Z,60.10
2022-12-31T12:26:34.414Z,47.67
2022-12-31T12:29:19.512Z,50.55
2022-12-31T12:32:21.088Z,56.47
2022-12-31T12:34:50.055Z,51.85
2022-12-31T12:37:35.586Z,45.47
2022-12-31T12:40:31.408Z,52.15
2022-12-31T12:43:01.487Z,46.33
2022-12-31T12:45:38.443Z,39.25
2022-12-31T12:48:34.791Z,42.00
2022-12-31T12:51:06.670Z,30.65
2022-12-31T12:54:25.849Z,37.97
2022-12-31T12:57:43.862Z,40.60
2022-12-31T13:00:21.571Z,31.02
2022-12-31T13:04:14.691Z,32.92
2022-12-31T13:07:19.260Z,32.65
2022-12-31T13:10:15.292Z,29.33
2022-12-31T13:15:57.908Z,27.48
2022-12-31T13:19:07.723Z,42.38
2022-12-31T13:22:07.516Z,27.92
2022-12-31T13:25:05.711Z,30.38
2022-12-31T13:27:39.791Z,28.00
2022-12-31T13:30:31.315Z,27.83
2022-12-31T13:33:20.613Z,29.08
2022-12-31T13:36:08.548Z,19.85
2022-12-31T13:38:40.898Z,30.48
2022-12-31T13:41:32.542Z,41.00
2022-12-31T13:44:18.579Z,15.10
2022-12-31T13:47:01.037Z,15.85
2022-12-31T13:49:43.840Z,24.30
2022-12-31T13:52:58.695Z,23.20
2022-12-31T13:55:39.027Z,18.83
2022-12-31T13:58:37.317Z,21.02
2022-12-31T14:01:37.235Z,38.40
2022-12-31T14:04:28.521Z,28.95
2022-12-31T14:07:21.886Z,21.65
2022-12-31T14:09:50.093Z,25.42
2022-12-31T14:12:55.802Z,25.55
2022-12-31T14:15:32.825Z,31.50
2022-12-31T14:18:48.863Z,32.70
2022-12-31T14:21:23.985Z,22.38
2022-12-31T14:24:16.121Z,22.08
2022-12-31T14:26:50.787Z,23.27
2022-12-31T14:29:37.509Z,21.58
2022-12-31T14:32:59.712Z,25.85
2022-12-31T14:35:56.798Z,19.02
2022-12-31T14:39:13.284Z,19.58
2022-12-31T14:42:34.630Z,33.03
2022-12-31T14:45:50.858Z,31.23
2022-12-31T14:48:53.638Z,47.40
2022-12-31T14:51:20.808Z,42.05
2022-12-31T14:53:55.333Z,41.40
2022-12-31T14:56:48.562Z,56.75
2022-12-31T14:59:32.290Z,50.58
2022-12-31T15:02:03.093Z,51.65
2022-12-31T15:04:48.276Z,51.25
2022-12-31T15:07:34.078Z,48.88
2022-12-31T15:10:19.437Z,42.65
2022-12-31T15:13:06.606Z,44.35
2022-12-31T15:16:14.390Z,43.70
2022-12-31T15:19:03.174Z,37.75
2022-12-31T15:21:58.507Z,39.17
2022-12-31T15:24:27.913Z,43.00
2022-12-31T15:26:58.714Z,38.70
2022-12-31T15:29:35.314Z,22.10
2022-12-31T15:32:15.581Z,20.23
2022-12-31T15:34:42.758Z,18.87
2022-12-31T15:37:33.208Z,21.60
2022-12-31T15:40:18.674Z,12.00
2022-12-31T15:42:51.084Z,11.98
2022-12-31T15:45:26.727Z,10.02
2022-12-31T15:47:59.667Z,13.88
2022-12-31T15:50:28.369Z,8.15
2022-12-31T15:52:57.965Z,5.85
2022-12-31T15:55:30.364Z,6.05
2022-12-31T15:58:03.500Z,11.00
2022-12-31T16:01:02.783Z,13.48
2022-12-31T16:03:32.627Z,9.50
2022-12-31T16:06:03.115Z,7.85
2022-12-31T16:08:35.899Z,8.50
2022-12-31T16:11:09.173Z,13.98
2022-12-31T16:13:41.547Z,9.68
2022-12-31T16:16:20.895Z,10.45
2022-12-31T16:18:50.803Z,6.05
2022-12-31T16:21:46.722Z,7.20
2022-12-31T16:24:37.468Z,5.93
2022-12-31T16:27:16.904Z,7.32
2022-12-31T16:29:55.666Z,10.60
2022-12-31T16:32:23.597Z,13.88
2022-12-31T16:34:50.646Z,9.85
2022-12-31T16:37:20.623Z,8.30
2022-12-31T16:40:16.568Z,7.05
2022-12-31T16:42:46.718Z,7.20
2022-12-31T16:45:35.950Z,16.00
2022-12-31T16:48:17.401Z,17.90
2022-12-31T16:50:51.088Z,40.25
2022-12-31T16:53:21.727Z,42.53
2022-12-31T16:55:56.054Z,78.35
2022-12-31T16:58:34.145Z,70.60
2022-12-31T17:01:26.994Z,56.08
2022-12-31T17:03:58.244Z,19.33
2022-12-31T17:06:28.333Z,9.77
2022-12-31T17:09:10.379Z,5.82
2022-12-31T17:11:50.624Z,7.90
2022-12-31T17:14:20.665Z,7.25
2022-12-31T17:17:08.313Z,16.45
2022-12-31T17:19:47.675Z,11.13
2022-12-31T17:22:37.236Z,11.23
2022-12-31T17:25:07.426Z,12.82
2022-12-31T17:27:36.232Z,7.15
2022-12-31T17:30:23.280Z,11.30
2022-12-31T17:32:52.247Z,12.95
2022-12-31T17:35:34.881Z,12.65
2022-12-31T17:38:39.668Z,9.23
2022-12-31T17:41:23.385Z,8.65
2022-12-31T17:43:57.732Z,16.77
2022-12-31T17:46:26.155Z,11.77
2022-12-31T17:48:57.847Z,9.80
2022-12-31T17:51:24.895Z,7.18
2022-12-31T17:53:52.104Z,9.18
2022-12-31T17:56:20.956Z,14.20
2022-12-31T17:58:51.843Z,11.98
2022-12-31T18:01:21.938Z,11.27
2022-12-31T18:03:49.567Z,14.73
2022-12-31T18:06:17.330Z,6.13
2022-12-31T18:08:44.526Z,8.50
2022-12-31T18:11:20.877Z,8.43
2022-12-31T18:13:48.876Z,8.68
2022-12-31T18:16:16.500Z,11.63
2022-12-31T18:18:45.679Z,8.23
2022-12-31T18:21:26.965Z,12.98
2022-12-31T18:26:23.606Z,11.05
2022-12-31T18:28:51.512Z,10.43
2022-12-31T18:31:24.567Z,8.13
2022-12-31T18:33:53.878Z,6.68
2022-12-31T18:36:22.295Z,7.65
2022-12-31T18:38:49.746Z,6.47
2022-12-31T18:41:22.542Z,25.02
2022-12-31T18:43:50.601Z,6.68
2022-12-31T18:46:20.499Z,6.35
2022-12-31T18:48:48.319Z,7.18
2022-12-31T18:51:18.638Z,11.27
2022-12-31T18:53:46.312Z,11.27
2022-12-31T18:56:16.229Z,6.35
2022-12-31T18:58:43.627Z,6.95
2022-12-31T19:01:32.562Z,5.07
2022-12-31T19:04:02.700Z,10.25
2022-12-31T19:06:31.052Z,7.95
2022-12-31T19:09:00.832Z,12.73
2022-12-31T19:11:28.266Z,9.98
2022-12-31T19:13:55.643Z,7.93
2022-12-31T19:16:22.694Z,6.10
2022-12-31T19:18:50.960Z,8.85
2022-12-31T19:21:20.584Z,7.13
2022-12-31T19:23:47.819Z,9.13
2022-12-31T19:26:20.825Z,6.68
2022-12-31T19:28:49.337Z,6.80
2022-12-31T19:31:17.349Z,9.13
2022-12-31T19:33:44.744Z,21.77
2022-12-31T19:36:16.728Z,32.03
2022-12-31T19:38:44.687Z,71.20
2022-12-31T19:41:20.264Z,92.80
2022-12-31T19:43:48.328Z,90.75
2022-12-31T19:46:17.677Z,92.63
2022-12-31T19:48:45.876Z,85.47
2022-12-31T19:51:16.913Z,79.80
2022-12-31T19:53:45.284Z,71.68
2022-12-31T19:56:20.544Z,62.17
2022-12-31T19:58:48.299Z,59.03
2022-12-31T20:01:23.946Z,46.85
2022-12-31T20:03:51.337Z,44.45
2022-12-31T20:06:19.419Z,31.52
2022-12-31T20:08:46.807Z,24.02
2022-12-31T20:11:19.047Z,20.75
2022-12-31T20:13:47.657Z,20.05
2022-12-31T20:16:18.055Z,18.83
2022-12-31T20:18:47.182Z,22.67
2022-12-31T20:21:20.564Z,16.58
2022-12-31T20:23:49.353Z,17.42
2022-12-31T20:26:16.915Z,16.52
2022-12-31T20:28:44.191Z,31.10
2022-12-31T20:31:16.867Z,18.95
2022-12-31T20:33:44.266Z,11.95
2022-12-31T20:36:13.784Z,18.20
2022-12-31T20:38:40.966Z,10.82
2022-12-31T20:41:16.548Z,8.98
2022-12-31T20:43:44.427Z,10.50
2022-12-31T20:46:19.747Z,11.55
2022-12-31T20:48:48.300Z,10.77
2022-12-31T20:51:17.218Z,13.18
2022-12-31T20:53:53.084Z,9.55
2022-12-31T20:56:20.090Z,18.83
2022-12-31T20:58:47.636Z,18.15
2022-12-31T21:01:15.715Z,24.98
2022-12-31T21:06:32.258Z,29.98
2022-12-31T21:09:01.418Z,30.45
2022-12-31T21:11:47.439Z,30.13
2022-12-31T21:14:15.146Z,35.40
2022-12-31T21:16:42.218Z,34.10
2022-12-31T21:19:10.141Z,36.70
2022-12-31T21:21:37.277Z,31.40
2022-12-31T21:24:04.958Z,48.10
2022-12-31T21:26:32.315Z,46.55
2022-12-31T21:28:59.412Z,71.32
2022-12-31T21:31:26.698Z,52.47
2022-12-31T21:33:53.961Z,37.60
2022-12-31T21:36:21.152Z,46.65
2022-12-31T21:38:48.208Z,55.65
2022-12-31T21:41:35.091Z,80.00
2022-12-31T21:44:02.950Z,121.93
2022-12-31T21:46:30.317Z,103.40
2022-12-31T21:48:59.456Z,109.55
2022-12-31T21:51:26.810Z,87.43
2022-12-31T21:53:54.194Z,64.07
2022-12-31T21:56:22.540Z,64.57
2022-12-31T21:59:13.937Z,55.25
2022-12-31T22:01:59.486Z,57.20
2022-12-31T22:07:13.836Z,97.47
2022-12-31T22:09:40.794Z,173.68
2022-12-31T22:12:08.021Z,397.63
2022-12-31T22:14:35.013Z,161.00
2022-12-31T22:17:01.971Z,103.57
2022-12-31T22:19:28.986Z,105.47
2022-12-31T22:21:56.015Z,125.43
2022-12-31T22:24:22.986Z,131.77
2022-12-31T22:26:51.085Z,111.63
2022-12-31T22:29:19.991Z,145.88
2022-12-31T22:31:46.976Z,153.13
2022-12-31T22:34:14.087Z,149.55
2022-12-31T22:36:41.107Z,63.67
2022-12-31T22:39:13.739Z,56.13
2022-12-31T22:42:00.728Z,36.58
2022-12-31T22:44:27.674Z,58.28
2022-12-31T22:46:56.367Z,56.10
2022-12-31T22:49:23.544Z,74.90
2022-12-31T22:51:56.859Z,73.07
2022-12-31T22:54:25.926Z,69.93
2022-12-31T22:56:53.115Z,49.50
2022-12-31T22:59:20.227Z,49.60
2022-12-31T23:01:47.597Z,57.35
2022-12-31T23:04:14.881Z,74.65
2022-12-31T23:06:44.791Z,60.25
2022-12-31T23:09:32.553Z,87.13
2022-12-31T23:12:00.076Z,80.82
2022-12-31T23:14:45.849Z,79.05
2022-12-31T23:17:38.870Z,77.32
2022-12-31T23:20:28.995Z,78.45
2022-12-31T23:23:11.702Z,80.65
2022-12-31T23:25:43.439Z,85.00
2022-12-31T23:28:23.616Z,73.38
2022-12-31T23:30:51.737Z,77.88
2022-12-31T23:33:21.925Z,67.22
2022-12-31T23:35:49.306Z,65.35
2022-12-31T23:38:17.902Z,38.65
2022-12-31T23:40:45.450Z,36.08
2022-12-31T23:43:22.607Z,26.60
2022-12-31T23:45:53.467Z,23.83
2022-12-31T23:48:20.623Z,25.40
2022-12-31T23:50:54.499Z,17.40
2022-12-31T23:53:23.338Z,18.15
2022-12-31T23:55:51.401Z,20.27
2022-12-31T23:58:18.503Z,45.80
